This is the latest recevied weather packets stored in our database for station/object RUSSARO. If no packets are shown the sender has not sent any weather packets the latest 10 day(s).
| Time | Temp. | Humidity | Pressure | Rain* | Wind** | Luminosity | Snow |
|---|---|---|---|---|---|---|---|
| 1777340804 | 2.78° C | 61% | 1019.4 hPa | 0 mm | - | - | - |
| 1777338404 | 2.78° C | 63% | 1019.4 hPa | 0 mm | - | - | - |
| 1777337205 | 2.78° C | 65% | 1019.4 hPa | 0 mm | - | - | - |
| 1777333605 | 2.78° C | 59% | 1019.1 hPa | 0 mm | - | - | - |
| 1777313202 | 4.44° C | 65% | 1017.7 hPa | 0 mm | - | - | - |
| 1777310803 | 3.89° C | 68% | 1017.5 hPa | 0 mm | - | - | - |
| 1777306003 | 4.44° C | 62% | 1017 hPa | 0 mm | - | - | - |
| 1777303602 | 2.78° C | 83% | 1017.3 hPa | 0 mm | - | - | - |
| 1777300002 | 5.56° C | 54% | 1017 hPa | 0 mm | - | - | - |
| 1777298802 | 6.67° C | 52% | 1016.8 hPa | 0 mm | - | - | - |
| 1777297602 | 5.56° C | 57% | 1016.8 hPa | 0 mm | - | - | - |
| 1777296402 | 4.44° C | 63% | 1016.6 hPa | 0 mm | - | - | - |
| 1777295202 | 3.33° C | 74% | 1017.4 hPa | 0 mm | - | - | - |
| 1777294001 | 6.67° C | 53% | 1016.3 hPa | 0 mm | - | - | - |
| 1777292802 | 7.22° C | 53% | 1016.1 hPa | 0 mm | - | - | - |
| 1777291601 | 7.22° C | 51% | 1016.3 hPa | 0 mm | - | - | - |
| 1777289202 | 6.11° C | 52% | 1016 hPa | 0 mm | - | - | - |
| 1777288002 | 6.11° C | 60% | 1016.4 hPa | 0 mm | - | - | - |
| 1777285601 | 6.67° C | 64% | 1016.2 hPa | 0 mm | - | - | - |
| 1777284401 | 6.67° C | 60% | 1016.4 hPa | 0 mm | - | - | - |
| 1777283202 | 7.22° C | 59% | 1016.4 hPa | 0 mm | - | - | - |
| 1777282001 | 7.78° C | 48% | 1016.3 hPa | 0 mm | - | - | - |
| 1777280801 | 7.78° C | 45% | 1016.3 hPa | 0 mm | - | - | - |
| 1777279601 | 7.22° C | 46% | 1016.3 hPa | 0 mm | - | - | - |
| 1777278402 | 6.67° C | 43% | 1016.2 hPa | 0 mm | - | - | - |
* Rain latest hour (hover to see other rain measurements)
** Current wind speed in m/s (hover to see current wind gust speed)